createdAt,value
2018-09-02T00:00:56.204Z,15.04
2018-09-02T00:03:26.424Z,15.08
2018-09-02T00:05:56.336Z,15.07
2018-09-02T00:08:27.348Z,15.05
2018-09-02T00:10:57.396Z,15.04
2018-09-02T00:13:28.993Z,15.11
2018-09-02T00:15:59.136Z,15.09
2018-09-02T00:18:34.490Z,15.12
2018-09-02T00:41:46.658Z,15.20
2018-09-02T00:44:16.818Z,15.19
2018-09-02T00:46:46.889Z,15.16
2018-09-02T00:49:17.173Z,15.09
2018-09-02T00:51:47.457Z,15.11
2018-09-02T00:54:18.025Z,15.13
2018-09-02T00:56:48.473Z,15.13
2018-09-02T00:59:18.544Z,15.14
2018-09-02T01:01:48.357Z,15.09
2018-09-02T01:04:19.314Z,15.10
2018-09-02T01:06:49.472Z,15.09
2018-09-02T01:09:21.420Z,15.12
2018-09-02T01:11:52.264Z,15.14
2018-09-02T01:14:22.589Z,15.16
2018-09-02T01:16:52.881Z,15.14
2018-09-02T01:19:22.865Z,15.15
2018-09-02T01:21:53.222Z,15.18
2018-09-02T01:24:23.205Z,15.17
2018-09-02T01:26:54.090Z,15.17
2018-09-02T01:29:23.943Z,15.15
2018-09-02T01:31:54.345Z,15.13
2018-09-02T01:36:50.341Z,15.09
2018-09-02T01:51:05.264Z,15.09
2018-09-02T01:59:54.879Z,15.03
2018-09-02T02:02:26.705Z,15.07
2018-09-02T02:04:56.795Z,15.08
2018-09-02T02:07:26.870Z,15.12
2018-09-02T02:09:56.860Z,15.12
2018-09-02T02:12:26.970Z,15.17
2018-09-02T02:14:56.827Z,15.15
2018-09-02T02:17:27.016Z,15.18
2018-09-02T02:19:57.122Z,15.20
2018-09-02T02:22:27.198Z,15.21
2018-09-02T02:24:57.360Z,15.23
2018-09-02T02:30:30.924Z,15.22
2018-09-02T02:33:01.243Z,15.20
2018-09-02T02:35:31.323Z,15.23
2018-09-02T02:38:01.381Z,15.23
2018-09-02T02:40:31.643Z,15.24
2018-09-02T02:43:01.643Z,15.24
2018-09-02T02:45:31.509Z,15.23
2018-09-02T02:48:01.589Z,15.19
2018-09-02T02:50:31.980Z,15.04
2018-09-02T02:53:05.467Z,15.09
2018-09-02T02:55:36.429Z,15.13
2018-09-02T02:58:07.239Z,15.11
2018-09-02T03:00:37.230Z,15.15
2018-09-02T03:03:07.313Z,15.12
2018-09-02T03:05:37.717Z,15.14
2018-09-02T03:08:07.953Z,15.16
2018-09-02T03:10:38.022Z,15.14
2018-09-02T03:13:08.006Z,15.20
2018-09-02T03:15:37.910Z,15.18
2018-09-02T03:18:07.796Z,15.20
2018-09-02T03:20:37.641Z,15.19
2018-09-02T03:23:07.608Z,15.24
2018-09-02T03:25:37.522Z,15.26
2018-09-02T03:28:07.478Z,15.30
2018-09-02T03:30:37.945Z,15.33
2018-09-02T03:33:09.545Z,15.29
2018-09-02T03:35:39.405Z,15.23
2018-09-02T03:38:09.743Z,15.23
2018-09-02T03:40:39.792Z,15.29
2018-09-02T03:43:10.235Z,15.33
2018-09-02T03:45:41.222Z,15.35
2018-09-02T03:48:12.073Z,15.37
2018-09-02T03:50:42.643Z,15.32
2018-09-02T03:53:12.881Z,15.30
2018-09-02T03:55:42.904Z,15.29
2018-09-02T03:58:12.955Z,15.29
2018-09-02T04:00:43.295Z,15.30
2018-09-02T04:03:13.593Z,15.31
2018-09-02T04:05:43.483Z,15.28
2018-09-02T04:08:13.928Z,15.24
2018-09-02T04:10:43.959Z,15.23
2018-09-02T04:13:14.013Z,15.24
2018-09-02T04:15:43.799Z,15.22
2018-09-02T04:18:13.863Z,15.24
2018-09-02T04:20:43.642Z,15.26
2018-09-02T04:23:13.636Z,15.30
2018-09-02T04:25:43.485Z,15.29
2018-09-02T04:28:14.020Z,15.28
2018-09-02T04:30:43.922Z,15.31
2018-09-02T04:33:14.024Z,15.26
2018-09-02T04:35:43.995Z,15.28
2018-09-02T04:38:13.957Z,15.33
2018-09-02T04:40:44.020Z,15.40
2018-09-02T04:43:14.270Z,15.41
2018-09-02T04:45:44.188Z,15.36
2018-09-02T04:48:14.204Z,15.40
2018-09-02T04:50:44.051Z,15.40
2018-09-02T04:53:14.221Z,15.45
2018-09-02T04:55:44.443Z,15.45
2018-09-02T04:58:14.323Z,15.43
2018-09-02T05:00:44.182Z,15.41
2018-09-02T05:03:14.223Z,15.43
2018-09-02T05:05:43.954Z,15.43
2018-09-02T05:08:13.863Z,15.43
2018-09-02T05:10:43.642Z,15.45
2018-09-02T05:13:13.802Z,15.48
2018-09-02T05:15:43.642Z,15.49
2018-09-02T05:18:13.583Z,15.51
2018-09-02T05:20:43.422Z,15.51
2018-09-02T05:23:13.342Z,15.51
2018-09-02T05:25:43.622Z,15.53
2018-09-02T05:28:13.883Z,15.54
2018-09-02T05:30:43.776Z,15.55
2018-09-02T05:33:14.046Z,15.54
2018-09-02T05:35:44.002Z,15.56
2018-09-02T05:38:13.905Z,15.58
2018-09-02T05:40:43.627Z,15.60
2018-09-02T05:43:13.728Z,15.63
2018-09-02T05:45:43.484Z,15.61
2018-09-02T05:48:13.324Z,15.62
2018-09-02T05:50:43.143Z,15.63
2018-09-02T05:53:13.102Z,15.65
2018-09-02T05:55:42.922Z,15.68
2018-09-02T05:58:12.922Z,15.66
2018-09-02T06:00:42.662Z,15.69
2018-09-02T06:03:12.601Z,15.71
2018-09-02T06:05:42.542Z,15.72
2018-09-02T06:08:12.581Z,15.70
2018-09-02T06:10:42.661Z,15.75
2018-09-02T06:13:12.930Z,15.77
2018-09-02T06:15:43.021Z,15.70
2018-09-02T06:18:13.521Z,15.73
2018-09-02T06:20:43.561Z,15.77
2018-09-02T06:23:13.441Z,15.83
2018-09-02T06:25:43.621Z,15.88
2018-09-02T06:28:19.320Z,15.92
2018-09-02T06:30:49.121Z,15.92
2018-09-02T06:33:18.980Z,15.96
2018-09-02T06:35:49.042Z,16.00
2018-09-02T06:38:19.140Z,15.98
2018-09-02T06:40:49.280Z,15.99
2018-09-02T06:43:20.604Z,15.94
2018-09-02T06:45:50.956Z,15.96
2018-09-02T06:48:22.940Z,15.99
2018-09-02T06:50:53.079Z,16.00
2018-09-02T06:53:23.367Z,15.96
2018-09-02T06:55:53.800Z,16.02
2018-09-02T06:58:24.979Z,16.09
2018-09-02T07:00:55.039Z,16.00
2018-09-02T07:03:26.394Z,15.90
2018-09-02T07:05:57.620Z,15.92
2018-09-02T07:08:27.981Z,16.00
2018-09-02T07:10:58.904Z,16.08
2018-09-02T07:13:29.380Z,16.14
2018-09-02T07:15:59.880Z,16.17
2018-09-02T07:18:30.177Z,16.18
2018-09-02T07:21:00.118Z,16.17
2018-09-02T07:23:31.204Z,16.30
2018-09-02T07:26:01.099Z,16.19
2018-09-02T07:28:32.797Z,16.25
2018-09-02T07:31:02.796Z,16.49
2018-09-02T07:33:33.873Z,16.58
2018-09-02T07:36:03.903Z,16.63
2018-09-02T07:38:35.408Z,16.58
2018-09-02T07:41:05.379Z,16.47
2018-09-02T07:43:38.150Z,16.46
2018-09-02T07:46:08.100Z,16.48
2018-09-02T07:48:40.452Z,16.59
2018-09-02T07:51:10.396Z,16.65
2018-09-02T07:53:41.156Z,16.62
2018-09-02T07:56:11.066Z,16.63
2018-09-02T07:58:41.723Z,16.67
2018-09-02T08:01:11.789Z,16.68
2018-09-02T08:03:43.764Z,16.74
2018-09-02T08:06:13.872Z,16.82
2018-09-02T08:08:44.939Z,16.75
2018-09-02T08:11:15.010Z,16.80
2018-09-02T08:13:46.111Z,16.83
2018-09-02T08:16:16.094Z,16.79
2018-09-02T08:18:46.252Z,16.77
2018-09-02T08:21:16.444Z,16.86
2018-09-02T08:23:48.419Z,16.84
2018-09-02T08:26:18.328Z,17.02
2018-09-02T08:28:49.975Z,17.10
2018-09-02T08:31:20.305Z,17.03
2018-09-02T08:33:52.659Z,17.01
2018-09-02T08:36:22.789Z,16.95
2018-09-02T08:38:54.325Z,16.74
2018-09-02T08:41:24.615Z,16.68
2018-09-02T08:43:56.858Z,16.69
2018-09-02T08:46:26.974Z,16.68
2018-09-02T08:48:57.063Z,16.69
2018-09-02T08:51:26.897Z,16.78
2018-09-02T08:53:56.927Z,16.97
2018-09-02T08:56:26.891Z,17.15
2018-09-02T08:58:56.769Z,17.28
2018-09-02T09:01:26.627Z,17.35
2018-09-02T09:03:56.578Z,17.42
2018-09-02T09:06:27.145Z,17.39
2018-09-02T09:08:57.910Z,17.40
2018-09-02T09:11:27.721Z,17.30
2018-09-02T09:13:57.775Z,17.38
2018-09-02T09:16:27.711Z,17.58
2018-09-02T09:18:57.696Z,17.38
2018-09-02T09:21:27.764Z,17.27
2018-09-02T09:23:57.870Z,17.24
2018-09-02T09:26:27.764Z,17.09
2018-09-02T09:28:58.560Z,17.11
2018-09-02T09:31:28.466Z,17.16
2018-09-02T09:33:59.128Z,17.20
2018-09-02T09:36:29.076Z,17.16
2018-09-02T09:38:59.040Z,17.20
2018-09-02T09:41:28.927Z,17.20
2018-09-02T09:43:58.914Z,17.39
2018-09-02T09:46:28.805Z,17.51
2018-09-02T09:48:58.780Z,17.43
2018-09-02T09:51:28.724Z,17.32
2018-09-02T09:53:58.580Z,17.41
2018-09-02T09:56:28.533Z,17.62
2018-09-02T09:58:58.397Z,17.53
2018-09-02T10:01:28.406Z,17.46
2018-09-02T10:03:58.261Z,17.68
2018-09-02T10:06:28.053Z,17.79
2018-09-02T10:08:58.637Z,17.46
2018-09-02T10:11:28.415Z,17.45
2018-09-02T10:13:58.856Z,17.47
2018-09-02T10:16:28.908Z,17.42
2018-09-02T10:18:58.969Z,17.77
2018-09-02T10:21:28.891Z,17.58
2018-09-02T10:23:58.801Z,17.91
2018-09-02T10:26:28.572Z,18.07
2018-09-02T10:28:58.424Z,17.98
2018-09-02T10:31:28.415Z,17.98
2018-09-02T10:33:58.281Z,18.30
2018-09-02T10:36:28.140Z,18.78
2018-09-02T10:38:58.004Z,18.82
2018-09-02T10:41:28.082Z,18.79
2018-09-02T10:43:58.214Z,18.53
2018-09-02T10:46:28.153Z,18.45
2018-09-02T10:48:58.040Z,18.26
2018-09-02T10:51:27.907Z,18.34
2018-09-02T10:53:57.906Z,18.03
2018-09-02T10:56:27.697Z,18.21
2018-09-02T10:58:57.922Z,18.16
2018-09-02T11:01:27.883Z,18.24
2018-09-02T11:03:57.628Z,18.36
2018-09-02T11:06:27.999Z,18.42
2018-09-02T11:08:57.791Z,18.32
2018-09-02T11:11:27.858Z,18.34
2018-09-02T11:13:57.713Z,18.08
2018-09-02T11:16:27.930Z,18.16
2018-09-02T11:18:57.722Z,18.29
2018-09-02T11:21:27.775Z,18.46
2018-09-02T11:23:57.617Z,18.52
2018-09-02T11:26:27.602Z,18.56
2018-09-02T11:28:57.535Z,19.02
2018-09-02T11:31:27.491Z,18.99
2018-09-02T11:33:57.394Z,19.02
2018-09-02T11:36:27.330Z,19.22
2018-09-02T11:38:57.227Z,19.42
2018-09-02T11:41:27.193Z,19.67
2018-09-02T11:43:56.962Z,19.33
2018-09-02T11:46:26.974Z,19.20
2018-09-02T11:48:56.847Z,19.06
2018-09-02T11:51:26.836Z,19.53
2018-09-02T11:53:56.569Z,19.85
2018-09-02T11:56:26.436Z,19.98
2018-09-02T11:58:56.178Z,20.06
2018-09-02T12:01:26.195Z,20.11
2018-09-02T12:03:56.041Z,19.69
2018-09-02T12:06:26.874Z,19.64
2018-09-02T12:08:57.124Z,19.62
2018-09-02T12:11:28.239Z,19.79
2018-09-02T12:13:58.155Z,19.60
2018-09-02T12:16:28.313Z,19.72
2018-09-02T12:18:58.369Z,19.85
2018-09-02T12:21:28.432Z,19.68
2018-09-02T12:23:58.810Z,19.51
2018-09-02T12:26:28.735Z,19.22
2018-09-02T12:28:58.564Z,19.06
2018-09-02T12:31:28.547Z,19.15
2018-09-02T12:33:58.441Z,19.19
2018-09-02T12:36:28.348Z,19.09
2018-09-02T12:38:58.275Z,18.97
2018-09-02T12:41:28.157Z,18.95
2018-09-02T12:43:58.077Z,18.89
2018-09-02T12:46:27.971Z,18.87
2018-09-02T12:48:57.780Z,18.86
2018-09-02T12:51:27.962Z,18.95
2018-09-02T12:53:57.877Z,19.04
2018-09-02T12:56:27.702Z,19.14
2018-09-02T12:58:57.713Z,19.22
2018-09-02T13:01:27.768Z,19.47
2018-09-02T13:03:57.600Z,19.59
2018-09-02T13:06:27.652Z,19.65
2018-09-02T13:08:57.473Z,19.77
2018-09-02T13:11:27.407Z,20.14
2018-09-02T13:13:57.219Z,20.33
2018-09-02T13:16:27.028Z,20.11
2018-09-02T13:18:58.082Z,20.35
2018-09-02T13:21:28.134Z,20.61
2018-09-02T13:23:57.927Z,21.06
2018-09-02T13:26:28.123Z,20.78
2018-09-02T13:28:58.015Z,20.54
2018-09-02T13:31:28.148Z,20.52
2018-09-02T13:33:58.133Z,21.14
2018-09-02T13:36:28.660Z,21.26
2018-09-02T13:38:58.674Z,21.39
2018-09-02T13:41:28.535Z,21.82
2018-09-02T13:43:58.273Z,22.73
2018-09-02T13:49:02.809Z,21.89
2018-09-02T13:51:32.790Z,22.31
2018-09-02T13:54:02.666Z,22.32
2018-09-02T13:56:32.696Z,23.12
2018-09-02T13:59:02.537Z,23.38
2018-09-02T14:01:32.497Z,23.63
2018-09-02T14:04:02.522Z,23.23
2018-09-02T14:06:32.766Z,22.69
2018-09-02T14:09:02.699Z,22.28
2018-09-02T14:11:32.592Z,22.61
2018-09-02T14:14:02.442Z,22.05
2018-09-02T14:16:32.454Z,21.48
2018-09-02T14:19:02.199Z,22.22
2018-09-02T14:21:32.268Z,22.69
2018-09-02T14:24:02.026Z,22.84
2018-09-02T14:26:33.039Z,22.79
2018-09-02T14:29:02.860Z,22.59
2018-09-02T14:31:32.827Z,22.09
2018-09-02T14:34:02.670Z,21.75
2018-09-02T14:36:33.086Z,21.59
2018-09-02T14:39:03.012Z,21.28
2018-09-02T14:41:32.952Z,21.40
2018-09-02T14:44:02.879Z,21.18
2018-09-02T14:46:32.833Z,21.19
2018-09-02T14:49:02.594Z,20.81
2018-09-02T14:51:32.620Z,20.95
2018-09-02T14:54:02.635Z,20.97
2018-09-02T14:57:07.493Z,20.88
2018-09-02T14:59:37.937Z,20.85
2018-09-02T15:02:08.397Z,20.79
2018-09-02T15:04:38.159Z,20.73
2018-09-02T15:07:09.310Z,20.76
2018-09-02T15:09:39.314Z,20.71
2018-09-02T15:12:09.193Z,20.66
2018-09-02T15:14:38.872Z,20.74
2018-09-02T15:17:09.086Z,20.72
2018-09-02T15:19:38.987Z,20.84
2018-09-02T15:22:09.554Z,20.90
2018-09-02T15:24:39.346Z,20.99
2018-09-02T15:27:09.376Z,21.11
2018-09-02T15:29:39.271Z,21.17
2018-09-02T15:32:09.601Z,21.17
2018-09-02T15:34:39.447Z,20.81
2018-09-02T15:37:10.075Z,20.89
2018-09-02T15:39:39.868Z,20.58
2018-09-02T15:42:11.933Z,20.46
2018-09-02T15:44:41.748Z,20.17
2018-09-02T15:47:11.886Z,20.16
2018-09-02T15:49:41.776Z,20.02
2018-09-02T15:52:12.446Z,19.73
2018-09-02T15:54:42.367Z,19.69
2018-09-02T15:57:13.100Z,19.59
2018-09-02T15:59:42.832Z,19.40
2018-09-02T16:04:48.332Z,19.24
2018-09-02T16:07:18.242Z,19.16
2018-09-02T16:09:48.045Z,19.21
2018-09-02T16:12:18.202Z,19.23
2018-09-02T16:14:47.945Z,19.13
2018-09-02T16:17:17.772Z,19.07
2018-09-02T16:19:47.630Z,19.02
2018-09-02T16:22:17.503Z,18.95
2018-09-02T16:24:48.272Z,18.78
2018-09-02T16:27:18.431Z,18.56
2018-09-02T16:29:48.332Z,18.52
2018-09-02T16:32:18.664Z,18.45
2018-09-02T16:34:48.864Z,18.45
2018-09-02T16:37:19.689Z,18.47
2018-09-02T16:39:49.587Z,18.51
2018-09-02T16:42:19.973Z,18.56
2018-09-02T16:44:50.030Z,18.71
2018-09-02T16:47:20.301Z,18.85
2018-09-02T16:49:50.703Z,18.84
2018-09-02T16:52:20.911Z,18.87
2018-09-02T16:54:51.090Z,18.69
2018-09-02T16:57:21.342Z,18.70
2018-09-02T16:59:57.770Z,18.70
2018-09-02T17:58:32.102Z,18.38
2018-09-02T18:01:02.431Z,17.67
2018-09-02T18:03:32.751Z,17.68
2018-09-02T18:06:02.760Z,17.66
2018-09-02T18:08:32.935Z,17.69
2018-09-02T18:11:03.242Z,17.71
2018-09-02T18:13:33.825Z,17.68
2018-09-02T18:16:04.114Z,17.68
2018-09-02T18:18:35.214Z,17.66
2018-09-02T18:21:05.290Z,17.67
2018-09-02T18:23:35.572Z,17.71
2018-09-02T18:26:05.773Z,17.71
2018-09-02T18:31:14.120Z,17.69
2018-09-02T18:33:44.653Z,17.68
2018-09-02T18:36:15.048Z,17.70
2018-09-02T18:41:19.995Z,17.70
2018-09-02T18:43:50.749Z,17.68
2018-09-02T18:46:30.310Z,17.58
2018-09-02T18:52:21.678Z,17.57
2018-09-02T18:54:53.113Z,17.62
2018-09-02T18:57:23.890Z,17.58
2018-09-02T18:59:54.677Z,17.58
2018-09-02T19:02:24.998Z,17.54
2018-09-02T19:04:55.509Z,17.41
2018-09-02T19:07:27.229Z,17.34
2018-09-02T19:09:57.292Z,17.31
2018-09-02T19:12:28.089Z,17.29
2018-09-02T19:14:58.329Z,17.23
2018-09-02T19:17:29.779Z,17.18
2018-09-02T19:20:00.077Z,17.14
2018-09-02T19:22:30.939Z,17.18
2018-09-02T19:25:01.731Z,17.18
2018-09-02T19:27:32.417Z,17.15
2018-09-02T19:30:02.892Z,17.13
2018-09-02T19:32:34.381Z,17.13
2018-09-02T19:35:10.070Z,17.14
2018-09-02T19:37:40.671Z,17.13
2018-09-02T19:40:11.477Z,17.08
2018-09-02T19:42:44.137Z,17.11
2018-09-02T19:45:14.517Z,17.17
2018-09-02T19:47:44.814Z,17.20
2018-09-02T19:50:14.971Z,17.20
2018-09-02T19:55:25.958Z,17.13
2018-09-02T19:57:57.060Z,17.06
2018-09-02T20:00:27.237Z,16.97
2018-09-02T20:02:57.726Z,16.87
2018-09-02T20:05:29.258Z,16.75
2018-09-02T20:07:59.557Z,16.65
2018-09-02T20:10:30.603Z,16.59
2018-09-02T20:13:02.876Z,16.61
2018-09-02T20:15:33.948Z,16.65
2018-09-02T20:18:04.521Z,16.66
2018-09-02T20:20:34.849Z,16.70
2018-09-02T20:23:05.568Z,16.73
2018-09-02T20:25:36.555Z,16.75
2018-09-02T20:28:06.819Z,16.74
2018-09-02T20:30:36.897Z,16.77
2018-09-02T20:33:07.115Z,16.77
2018-09-02T20:35:37.187Z,16.60
2018-09-02T20:38:08.145Z,16.56
2018-09-02T20:40:38.989Z,16.52
2018-09-02T20:43:10.683Z,16.41
2018-09-02T20:45:41.427Z,16.33
2018-09-02T20:48:12.122Z,16.27
2018-09-02T20:53:38.860Z,16.12
2018-09-02T20:56:14.211Z,16.01
2018-09-02T21:04:35.626Z,15.77
2018-09-02T21:09:57.631Z,15.59
2018-09-02T21:12:50.424Z,15.53
2018-09-02T23:07:47.009Z,14.91
